createdAt,value
2022-12-03T00:20:54.087Z,1.21
2022-12-03T00:42:39.862Z,1.14
2022-12-03T01:04:26.127Z,1.15
2022-12-03T01:26:12.310Z,1.31
2022-12-03T01:47:58.519Z,1.22
2022-12-03T02:09:44.360Z,1.25
2022-12-03T02:31:31.495Z,1.41
2022-12-03T02:53:23.112Z,1.18
2022-12-03T03:15:12.677Z,1.05
2022-12-03T03:36:58.881Z,1.24
2022-12-03T03:58:44.854Z,1.15
2022-12-03T04:20:30.609Z,1.25
2022-12-03T04:42:16.440Z,1.32
2022-12-03T05:04:02.696Z,1.49
2022-12-03T05:25:48.661Z,1.34
2022-12-03T05:47:35.714Z,1.26
2022-12-03T06:09:22.476Z,1.57
2022-12-03T06:31:11.020Z,1.79
2022-12-03T06:52:59.160Z,1.62
2022-12-03T07:14:44.935Z,1.48
2022-12-03T07:36:30.800Z,1.71
2022-12-03T07:58:16.659Z,1.76
2022-12-03T08:20:02.963Z,2.13
2022-12-03T08:42:13.880Z,2.20
2022-12-03T09:04:15.672Z,2.34
2022-12-03T09:26:01.998Z,2.77
2022-12-03T09:47:50.231Z,3.08
2022-12-03T10:09:36.345Z,3.13
2022-12-03T10:31:36.260Z,3.27
2022-12-03T10:53:24.216Z,3.26
2022-12-03T11:15:17.388Z,3.32
2022-12-03T11:37:30.510Z,3.59
2022-12-03T11:59:16.889Z,3.54
2022-12-03T12:21:33.528Z,3.71
2022-12-03T12:43:27.775Z,3.91
2022-12-03T13:05:15.733Z,3.87
2022-12-03T13:27:09.959Z,3.83
2022-12-03T13:49:00.419Z,4.02
2022-12-03T14:10:47.990Z,3.92
2022-12-03T14:32:33.824Z,3.74
2022-12-03T14:54:27.064Z,3.82
2022-12-03T15:16:13.114Z,3.63
2022-12-03T15:37:59.855Z,3.49
2022-12-03T15:59:46.257Z,3.72
2022-12-03T16:21:37.385Z,3.67
2022-12-03T16:43:23.587Z,3.60
2022-12-03T17:05:12.368Z,3.75
2022-12-03T17:26:58.274Z,3.72
2022-12-03T17:48:47.126Z,3.86
2022-12-03T18:10:35.435Z,3.71
2022-12-03T18:32:28.961Z,3.67
2022-12-03T18:54:15.900Z,3.94
2022-12-03T19:16:04.428Z,3.99
2022-12-03T19:37:50.395Z,4.12
2022-12-03T19:59:36.886Z,4.07
2022-12-03T20:21:22.976Z,4.20
2022-12-03T20:43:08.824Z,4.12
2022-12-03T21:04:56.139Z,4.10
2022-12-03T21:26:42.158Z,4.35
2022-12-03T21:48:27.952Z,4.22
2022-12-03T22:10:14.788Z,4.09
2022-12-03T22:32:00.692Z,4.17
2022-12-03T22:53:46.576Z,3.91
2022-12-03T23:15:32.691Z,3.86
2022-12-03T23:37:19.126Z,3.99
2022-12-03T23:59:04.873Z,3.75
